sensor_id;sensor_type;location;lat;lon;timestamp;P1;durP1;ratioP1;P2;durP2;ratioP2
20705;SDS011;10514;49.468;11.044;2022-07-30T00:00:06;11.40;;;7.72;;
20705;SDS011;10514;49.468;11.044;2022-07-30T00:02:32;11.50;;;8.45;;
20705;SDS011;10514;49.468;11.044;2022-07-30T00:04:58;9.68;;;6.80;;
20705;SDS011;10514;49.468;11.044;2022-07-30T00:07:24;10.23;;;7.95;;
20705;SDS011;10514;49.468;11.044;2022-07-30T00:09:50;9.68;;;7.57;;
20705;SDS011;10514;49.468;11.044;2022-07-30T00:12:16;11.13;;;7.13;;
20705;SDS011;10514;49.468;11.044;2022-07-30T00:14:42;10.73;;;8.45;;
20705;SDS011;10514;49.468;11.044;2022-07-30T00:17:08;11.02;;;8.85;;
20705;SDS011;10514;49.468;11.044;2022-07-30T00:19:34;11.40;;;8.30;;
20705;SDS011;10514;49.468;11.044;2022-07-30T00:22:00;13.30;;;8.30;;
20705;SDS011;10514;49.468;11.044;2022-07-30T00:24:26;9.02;;;7.40;;
20705;SDS011;10514;49.468;11.044;2022-07-30T00:26:52;6.78;;;6.03;;
20705;SDS011;10514;49.468;11.044;2022-07-30T00:29:18;7.30;;;6.15;;
20705;SDS011;10514;49.468;11.044;2022-07-30T00:31:44;7.65;;;5.50;;
20705;SDS011;10514;49.468;11.044;2022-07-30T00:34:09;8.45;;;5.95;;
20705;SDS011;10514;49.468;11.044;2022-07-30T00:36:37;7.50;;;5.65;;
20705;SDS011;10514;49.468;11.044;2022-07-30T00:39:02;7.50;;;6.03;;
20705;SDS011;10514;49.468;11.044;2022-07-30T00:41:28;8.93;;;7.18;;
20705;SDS011;10514;49.468;11.044;2022-07-30T00:43:54;6.78;;;5.70;;
20705;SDS011;10514;49.468;11.044;2022-07-30T00:46:20;10.38;;;7.10;;
20705;SDS011;10514;49.468;11.044;2022-07-30T00:48:46;7.65;;;6.07;;
20705;SDS011;10514;49.468;11.044;2022-07-30T00:51:12;5.93;;;5.22;;
20705;SDS011;10514;49.468;11.044;2022-07-30T00:53:38;7.53;;;5.90;;
20705;SDS011;10514;49.468;11.044;2022-07-30T00:56:04;11.63;;;6.97;;
20705;SDS011;10514;49.468;11.044;2022-07-30T00:58:30;6.70;;;5.90;;
20705;SDS011;10514;49.468;11.044;2022-07-30T01:00:56;9.13;;;6.90;;
20705;SDS011;10514;49.468;11.044;2022-07-30T01:03:22;6.60;;;5.47;;
20705;SDS011;10514;49.468;11.044;2022-07-30T01:05:48;7.55;;;5.93;;
20705;SDS011;10514;49.468;11.044;2022-07-30T01:08:15;8.63;;;6.75;;
20705;SDS011;10514;49.468;11.044;2022-07-30T01:10:41;9.80;;;7.57;;
20705;SDS011;10514;49.468;11.044;2022-07-30T01:13:07;8.07;;;6.93;;
20705;SDS011;10514;49.468;11.044;2022-07-30T01:15:34;6.57;;;5.90;;
20705;SDS011;10514;49.468;11.044;2022-07-30T01:18:00;8.27;;;6.93;;
20705;SDS011;10514;49.468;11.044;2022-07-30T01:20:31;7.97;;;5.10;;
20705;SDS011;10514;49.468;11.044;2022-07-30T01:23:00;6.13;;;5.50;;
20705;SDS011;10514;49.468;11.044;2022-07-30T01:28:07;8.15;;;6.45;;
20705;SDS011;10514;49.468;11.044;2022-07-30T01:30:35;9.82;;;7.75;;
20705;SDS011;10514;49.468;11.044;2022-07-30T01:33:03;9.48;;;7.13;;
20705;SDS011;10514;49.468;11.044;2022-07-30T01:35:31;6.72;;;5.95;;
20705;SDS011;10514;49.468;11.044;2022-07-30T01:37:57;8.20;;;6.55;;
20705;SDS011;10514;49.468;11.044;2022-07-30T01:40:25;8.25;;;7.15;;
20705;SDS011;10514;49.468;11.044;2022-07-30T01:42:52;7.88;;;6.05;;
20705;SDS011;10514;49.468;11.044;2022-07-30T01:45:19;9.30;;;8.10;;
20705;SDS011;10514;49.468;11.044;2022-07-30T01:47:46;11.38;;;6.80;;
20705;SDS011;10514;49.468;11.044;2022-07-30T01:50:14;9.55;;;8.05;;
20705;SDS011;10514;49.468;11.044;2022-07-30T01:52:40;10.93;;;8.30;;
20705;SDS011;10514;49.468;11.044;2022-07-30T01:55:08;10.13;;;7.35;;
20705;SDS011;10514;49.468;11.044;2022-07-30T01:57:34;9.35;;;8.10;;
20705;SDS011;10514;49.468;11.044;2022-07-30T02:00:03;10.70;;;7.95;;
20705;SDS011;10514;49.468;11.044;2022-07-30T02:02:30;7.65;;;6.82;;
20705;SDS011;10514;49.468;11.044;2022-07-30T02:04:55;11.93;;;8.57;;
20705;SDS011;10514;49.468;11.044;2022-07-30T02:07:22;11.30;;;9.02;;
20705;SDS011;10514;49.468;11.044;2022-07-30T02:10:03;9.25;;;8.15;;
20705;SDS011;10514;49.468;11.044;2022-07-30T02:12:31;11.07;;;9.13;;
20705;SDS011;10514;49.468;11.044;2022-07-30T02:15:06;9.57;;;7.03;;
20705;SDS011;10514;49.468;11.044;2022-07-30T02:17:38;9.68;;;8.27;;
20705;SDS011;10514;49.468;11.044;2022-07-30T02:20:04;14.70;;;8.38;;
20705;SDS011;10514;49.468;11.044;2022-07-30T02:22:32;8.82;;;6.50;;
20705;SDS011;10514;49.468;11.044;2022-07-30T02:25:02;8.60;;;7.32;;
20705;SDS011;10514;49.468;11.044;2022-07-30T02:27:32;9.25;;;7.97;;
20705;SDS011;10514;49.468;11.044;2022-07-30T02:30:00;10.32;;;7.93;;
20705;SDS011;10514;49.468;11.044;2022-07-30T02:32:28;8.85;;;7.55;;
20705;SDS011;10514;49.468;11.044;2022-07-30T02:34:56;8.95;;;8.05;;
20705;SDS011;10514;49.468;11.044;2022-07-30T02:37:23;9.32;;;6.40;;
20705;SDS011;10514;49.468;11.044;2022-07-30T02:39:51;8.73;;;7.00;;
20705;SDS011;10514;49.468;11.044;2022-07-30T02:42:18;8.82;;;7.30;;
20705;SDS011;10514;49.468;11.044;2022-07-30T02:44:45;10.00;;;7.85;;
20705;SDS011;10514;49.468;11.044;2022-07-30T02:47:14;10.50;;;8.00;;
20705;SDS011;10514;49.468;11.044;2022-07-30T02:49:40;9.70;;;7.72;;
20705;SDS011;10514;49.468;11.044;2022-07-30T02:52:07;12.10;;;9.40;;
20705;SDS011;10514;49.468;11.044;2022-07-30T02:54:38;9.75;;;8.15;;
20705;SDS011;10514;49.468;11.044;2022-07-30T02:57:05;9.20;;;7.00;;
20705;SDS011;10514;49.468;11.044;2022-07-30T02:59:31;9.32;;;7.05;;
20705;SDS011;10514;49.468;11.044;2022-07-30T03:01:58;9.98;;;7.25;;
20705;SDS011;10514;49.468;11.044;2022-07-30T03:04:24;8.30;;;7.38;;
20705;SDS011;10514;49.468;11.044;2022-07-30T03:06:50;9.32;;;6.57;;
20705;SDS011;10514;49.468;11.044;2022-07-30T03:09:18;9.13;;;6.45;;
20705;SDS011;10514;49.468;11.044;2022-07-30T03:11:45;8.45;;;7.43;;
20705;SDS011;10514;49.468;11.044;2022-07-30T03:14:12;9.23;;;8.07;;
20705;SDS011;10514;49.468;11.044;2022-07-30T03:16:38;13.18;;;10.45;;
20705;SDS011;10514;49.468;11.044;2022-07-30T03:19:06;21.25;;;15.07;;
20705;SDS011;10514;49.468;11.044;2022-07-30T03:21:34;19.83;;;13.52;;
20705;SDS011;10514;49.468;11.044;2022-07-30T03:24:01;26.42;;;16.90;;
20705;SDS011;10514;49.468;11.044;2022-07-30T03:26:29;23.77;;;17.65;;
20705;SDS011;10514;49.468;11.044;2022-07-30T03:28:55;21.80;;;16.48;;
20705;SDS011;10514;49.468;11.044;2022-07-30T03:31:21;18.92;;;15.25;;
20705;SDS011;10514;49.468;11.044;2022-07-30T03:33:47;19.58;;;14.95;;
20705;SDS011;10514;49.468;11.044;2022-07-30T03:36:14;21.92;;;16.95;;
20705;SDS011;10514;49.468;11.044;2022-07-30T03:38:40;17.70;;;14.20;;
20705;SDS011;10514;49.468;11.044;2022-07-30T03:41:07;20.23;;;15.52;;
20705;SDS011;10514;49.468;11.044;2022-07-30T03:43:33;15.68;;;12.75;;
20705;SDS011;10514;49.468;11.044;2022-07-30T03:46:02;16.13;;;12.95;;
20705;SDS011;10514;49.468;11.044;2022-07-30T03:48:29;16.23;;;14.45;;
20705;SDS011;10514;49.468;11.044;2022-07-30T03:50:56;16.38;;;13.15;;
20705;SDS011;10514;49.468;11.044;2022-07-30T03:53:23;16.10;;;13.15;;
20705;SDS011;10514;49.468;11.044;2022-07-30T03:55:49;16.27;;;13.32;;
20705;SDS011;10514;49.468;11.044;2022-07-30T03:58:15;18.13;;;14.20;;
20705;SDS011;10514;49.468;11.044;2022-07-30T04:00:41;14.30;;;11.27;;
20705;SDS011;10514;49.468;11.044;2022-07-30T04:03:12;17.30;;;13.18;;
20705;SDS011;10514;49.468;11.044;2022-07-30T04:05:38;22.50;;;15.98;;
20705;SDS011;10514;49.468;11.044;2022-07-30T04:08:04;15.73;;;13.40;;
20705;SDS011;10514;49.468;11.044;2022-07-30T04:10:30;17.67;;;13.63;;
20705;SDS011;10514;49.468;11.044;2022-07-30T04:12:56;15.55;;;13.15;;
20705;SDS011;10514;49.468;11.044;2022-07-30T04:15:22;18.60;;;15.20;;
20705;SDS011;10514;49.468;11.044;2022-07-30T04:17:48;18.65;;;14.85;;
20705;SDS011;10514;49.468;11.044;2022-07-30T04:20:17;18.20;;;14.20;;
20705;SDS011;10514;49.468;11.044;2022-07-30T04:22:50;13.60;;;12.05;;
20705;SDS011;10514;49.468;11.044;2022-07-30T04:25:17;20.48;;;14.15;;
20705;SDS011;10514;49.468;11.044;2022-07-30T04:27:44;14.68;;;12.35;;
20705;SDS011;10514;49.468;11.044;2022-07-30T04:30:10;15.25;;;13.60;;
20705;SDS011;10514;49.468;11.044;2022-07-30T04:32:37;16.08;;;13.55;;
20705;SDS011;10514;49.468;11.044;2022-07-30T04:35:03;15.90;;;13.77;;
20705;SDS011;10514;49.468;11.044;2022-07-30T04:37:29;13.60;;;10.88;;
20705;SDS011;10514;49.468;11.044;2022-07-30T04:39:55;18.08;;;13.25;;
20705;SDS011;10514;49.468;11.044;2022-07-30T04:42:24;14.38;;;12.75;;
20705;SDS011;10514;49.468;11.044;2022-07-30T04:44:53;15.00;;;13.07;;
20705;SDS011;10514;49.468;11.044;2022-07-30T04:47:20;16.13;;;12.68;;
20705;SDS011;10514;49.468;11.044;2022-07-30T04:49:46;17.10;;;13.52;;
20705;SDS011;10514;49.468;11.044;2022-07-30T04:52:12;15.10;;;12.63;;
20705;SDS011;10514;49.468;11.044;2022-07-30T04:54:41;15.40;;;13.20;;
20705;SDS011;10514;49.468;11.044;2022-07-30T04:57:09;18.52;;;14.25;;
20705;SDS011;10514;49.468;11.044;2022-07-30T04:59:36;16.67;;;14.30;;
20705;SDS011;10514;49.468;11.044;2022-07-30T05:02:02;18.42;;;13.25;;
20705;SDS011;10514;49.468;11.044;2022-07-30T05:04:30;17.73;;;14.57;;
20705;SDS011;10514;49.468;11.044;2022-07-30T05:06:57;13.85;;;12.27;;
20705;SDS011;10514;49.468;11.044;2022-07-30T05:09:24;15.48;;;12.15;;
20705;SDS011;10514;49.468;11.044;2022-07-30T05:11:51;12.27;;;10.77;;
20705;SDS011;10514;49.468;11.044;2022-07-30T05:14:18;13.85;;;12.38;;
20705;SDS011;10514;49.468;11.044;2022-07-30T05:16:44;17.80;;;13.77;;
20705;SDS011;10514;49.468;11.044;2022-07-30T05:19:10;15.23;;;13.15;;
20705;SDS011;10514;49.468;11.044;2022-07-30T05:21:37;16.30;;;13.85;;
20705;SDS011;10514;49.468;11.044;2022-07-30T05:24:03;23.17;;;15.93;;
20705;SDS011;10514;49.468;11.044;2022-07-30T05:26:29;22.35;;;17.38;;
20705;SDS011;10514;49.468;11.044;2022-07-30T05:28:55;22.98;;;18.48;;
20705;SDS011;10514;49.468;11.044;2022-07-30T05:31:21;21.80;;;16.42;;
20705;SDS011;10514;49.468;11.044;2022-07-30T05:33:46;24.65;;;20.05;;
20705;SDS011;10514;49.468;11.044;2022-07-30T05:36:12;28.40;;;20.60;;
20705;SDS011;10514;49.468;11.044;2022-07-30T05:38:38;22.55;;;16.98;;
20705;SDS011;10514;49.468;11.044;2022-07-30T05:41:04;26.67;;;19.38;;
20705;SDS011;10514;49.468;11.044;2022-07-30T05:43:30;27.85;;;21.20;;
20705;SDS011;10514;49.468;11.044;2022-07-30T05:45:56;26.27;;;19.45;;
20705;SDS011;10514;49.468;11.044;2022-07-30T05:48:22;25.80;;;19.75;;
20705;SDS011;10514;49.468;11.044;2022-07-30T05:50:48;28.42;;;19.13;;
20705;SDS011;10514;49.468;11.044;2022-07-30T05:53:14;24.23;;;18.80;;
20705;SDS011;10514;49.468;11.044;2022-07-30T05:55:40;29.05;;;21.70;;
20705;SDS011;10514;49.468;11.044;2022-07-30T05:58:05;26.95;;;19.85;;
20705;SDS011;10514;49.468;11.044;2022-07-30T06:00:31;25.25;;;18.88;;
20705;SDS011;10514;49.468;11.044;2022-07-30T06:02:59;27.23;;;21.38;;
20705;SDS011;10514;49.468;11.044;2022-07-30T06:05:25;24.65;;;17.83;;
20705;SDS011;10514;49.468;11.044;2022-07-30T06:07:52;25.40;;;19.13;;
20705;SDS011;10514;49.468;11.044;2022-07-30T06:10:18;22.83;;;17.17;;
20705;SDS011;10514;49.468;11.044;2022-07-30T06:12:43;22.73;;;17.50;;
20705;SDS011;10514;49.468;11.044;2022-07-30T06:15:09;20.55;;;15.65;;
20705;SDS011;10514;49.468;11.044;2022-07-30T06:17:45;22.13;;;14.57;;
20705;SDS011;10514;49.468;11.044;2022-07-30T06:20:12;17.80;;;14.02;;
20705;SDS011;10514;49.468;11.044;2022-07-30T06:22:38;14.95;;;12.23;;
20705;SDS011;10514;49.468;11.044;2022-07-30T06:25:05;17.73;;;12.45;;
20705;SDS011;10514;49.468;11.044;2022-07-30T06:27:31;13.25;;;10.85;;
20705;SDS011;10514;49.468;11.044;2022-07-30T06:29:58;15.13;;;10.82;;
20705;SDS011;10514;49.468;11.044;2022-07-30T06:32:24;13.48;;;10.45;;
20705;SDS011;10514;49.468;11.044;2022-07-30T06:34:50;15.23;;;10.07;;
20705;SDS011;10514;49.468;11.044;2022-07-30T06:37:16;10.52;;;9.10;;
20705;SDS011;10514;49.468;11.044;2022-07-30T06:39:42;13.45;;;8.98;;
20705;SDS011;10514;49.468;11.044;2022-07-30T06:42:08;10.32;;;8.35;;
20705;SDS011;10514;49.468;11.044;2022-07-30T06:44:34;11.60;;;9.27;;
20705;SDS011;10514;49.468;11.044;2022-07-30T06:46:59;13.75;;;9.80;;
20705;SDS011;10514;49.468;11.044;2022-07-30T06:49:25;10.27;;;9.07;;
20705;SDS011;10514;49.468;11.044;2022-07-30T06:51:51;10.73;;;8.95;;
20705;SDS011;10514;49.468;11.044;2022-07-30T06:54:17;8.52;;;6.65;;
20705;SDS011;10514;49.468;11.044;2022-07-30T06:56:43;10.68;;;7.68;;
20705;SDS011;10514;49.468;11.044;2022-07-30T06:59:09;8.52;;;7.07;;
20705;SDS011;10514;49.468;11.044;2022-07-30T07:01:34;10.65;;;7.63;;
20705;SDS011;10514;49.468;11.044;2022-07-30T07:04:00;9.48;;;7.32;;
20705;SDS011;10514;49.468;11.044;2022-07-30T07:06:27;7.57;;;6.63;;
20705;SDS011;10514;49.468;11.044;2022-07-30T07:08:53;8.50;;;6.70;;
20705;SDS011;10514;49.468;11.044;2022-07-30T07:11:19;8.70;;;6.97;;
20705;SDS011;10514;49.468;11.044;2022-07-30T07:13:45;8.45;;;6.55;;
20705;SDS011;10514;49.468;11.044;2022-07-30T07:16:11;8.32;;;6.95;;
20705;SDS011;10514;49.468;11.044;2022-07-30T07:18:36;6.88;;;5.70;;
20705;SDS011;10514;49.468;11.044;2022-07-30T07:21:02;9.55;;;6.80;;
20705;SDS011;10514;49.468;11.044;2022-07-30T07:23:28;10.95;;;6.47;;
20705;SDS011;10514;49.468;11.044;2022-07-30T07:25:54;7.97;;;6.53;;
20705;SDS011;10514;49.468;11.044;2022-07-30T07:28:20;8.23;;;6.70;;
20705;SDS011;10514;49.468;11.044;2022-07-30T07:30:46;7.22;;;6.10;;
20705;SDS011;10514;49.468;11.044;2022-07-30T07:33:12;6.55;;;5.72;;
20705;SDS011;10514;49.468;11.044;2022-07-30T07:35:37;7.13;;;5.97;;
20705;SDS011;10514;49.468;11.044;2022-07-30T07:38:03;8.57;;;7.20;;
20705;SDS011;10514;49.468;11.044;2022-07-30T07:40:29;8.98;;;7.00;;
20705;SDS011;10514;49.468;11.044;2022-07-30T07:42:55;7.78;;;6.28;;
20705;SDS011;10514;49.468;11.044;2022-07-30T07:45:21;8.80;;;6.45;;
20705;SDS011;10514;49.468;11.044;2022-07-30T07:47:48;8.23;;;6.63;;
20705;SDS011;10514;49.468;11.044;2022-07-30T07:50:14;8.23;;;5.30;;
20705;SDS011;10514;49.468;11.044;2022-07-30T07:52:41;6.18;;;4.72;;
20705;SDS011;10514;49.468;11.044;2022-07-30T07:55:07;8.02;;;5.60;;
20705;SDS011;10514;49.468;11.044;2022-07-30T07:57:37;8.90;;;5.05;;
20705;SDS011;10514;49.468;11.044;2022-07-30T08:00:03;6.00;;;5.03;;
20705;SDS011;10514;49.468;11.044;2022-07-30T08:02:30;5.90;;;5.00;;
20705;SDS011;10514;49.468;11.044;2022-07-30T08:04:59;6.20;;;5.15;;
20705;SDS011;10514;49.468;11.044;2022-07-30T08:07:28;7.07;;;5.22;;
20705;SDS011;10514;49.468;11.044;2022-07-30T08:09:57;6.05;;;4.60;;
20705;SDS011;10514;49.468;11.044;2022-07-30T08:12:23;6.00;;;3.97;;
20705;SDS011;10514;49.468;11.044;2022-07-30T08:14:52;5.60;;;4.07;;
20705;SDS011;10514;49.468;11.044;2022-07-30T08:17:18;6.05;;;5.40;;
20705;SDS011;10514;49.468;11.044;2022-07-30T08:19:44;6.32;;;5.72;;
20705;SDS011;10514;49.468;11.044;2022-07-30T08:22:10;5.93;;;4.90;;
20705;SDS011;10514;49.468;11.044;2022-07-30T08:24:36;5.50;;;4.60;;
20705;SDS011;10514;49.468;11.044;2022-07-30T08:27:02;6.35;;;5.20;;
20705;SDS011;10514;49.468;11.044;2022-07-30T08:29:28;8.48;;;5.10;;
20705;SDS011;10514;49.468;11.044;2022-07-30T08:31:55;6.88;;;5.38;;
20705;SDS011;10514;49.468;11.044;2022-07-30T08:34:21;8.23;;;5.43;;
20705;SDS011;10514;49.468;11.044;2022-07-30T08:36:47;6.95;;;5.70;;
20705;SDS011;10514;49.468;11.044;2022-07-30T08:39:13;4.82;;;4.32;;
20705;SDS011;10514;49.468;11.044;2022-07-30T08:41:39;4.97;;;4.40;;
20705;SDS011;10514;49.468;11.044;2022-07-30T08:44:08;7.00;;;4.82;;
20705;SDS011;10514;49.468;11.044;2022-07-30T08:46:34;6.50;;;4.85;;
20705;SDS011;10514;49.468;11.044;2022-07-30T08:49:00;5.55;;;4.70;;
20705;SDS011;10514;49.468;11.044;2022-07-30T08:51:27;5.70;;;4.82;;
20705;SDS011;10514;49.468;11.044;2022-07-30T08:53:56;6.00;;;5.32;;
20705;SDS011;10514;49.468;11.044;2022-07-30T08:56:23;5.65;;;5.05;;
20705;SDS011;10514;49.468;11.044;2022-07-30T08:58:48;5.18;;;4.57;;
20705;SDS011;10514;49.468;11.044;2022-07-30T09:01:14;6.90;;;5.05;;
20705;SDS011;10514;49.468;11.044;2022-07-30T09:03:40;5.10;;;4.22;;
20705;SDS011;10514;49.468;11.044;2022-07-30T09:06:06;7.00;;;4.72;;
20705;SDS011;10514;49.468;11.044;2022-07-30T09:08:32;4.72;;;4.03;;
20705;SDS011;10514;49.468;11.044;2022-07-30T09:10:58;5.65;;;4.35;;
20705;SDS011;10514;49.468;11.044;2022-07-30T09:13:28;5.13;;;4.63;;
20705;SDS011;10514;49.468;11.044;2022-07-30T09:15:55;3.75;;;3.40;;
20705;SDS011;10514;49.468;11.044;2022-07-30T09:20:58;6.53;;;3.97;;
20705;SDS011;10514;49.468;11.044;2022-07-30T09:23:25;5.43;;;3.78;;
20705;SDS011;10514;49.468;11.044;2022-07-30T09:25:51;5.80;;;3.35;;
20705;SDS011;10514;49.468;11.044;2022-07-30T09:28:25;4.63;;;4.03;;
20705;SDS011;10514;49.468;11.044;2022-07-30T09:30:55;3.63;;;3.33;;
20705;SDS011;10514;49.468;11.044;2022-07-30T09:33:31;4.18;;;3.22;;
20705;SDS011;10514;49.468;11.044;2022-07-30T09:35:59;6.55;;;3.83;;
20705;SDS011;10514;49.468;11.044;2022-07-30T09:38:25;2.88;;;2.67;;
20705;SDS011;10514;49.468;11.044;2022-07-30T09:40:52;4.93;;;2.33;;
20705;SDS011;10514;49.468;11.044;2022-07-30T09:43:19;4.75;;;2.67;;
20705;SDS011;10514;49.468;11.044;2022-07-30T09:45:49;4.03;;;3.58;;
20705;SDS011;10514;49.468;11.044;2022-07-30T09:48:19;4.78;;;3.33;;
20705;SDS011;10514;49.468;11.044;2022-07-30T09:50:46;4.25;;;3.00;;
20705;SDS011;10514;49.468;11.044;2022-07-30T09:53:13;3.25;;;2.95;;
20705;SDS011;10514;49.468;11.044;2022-07-30T09:55:39;4.63;;;2.45;;
20705;SDS011;10514;49.468;11.044;2022-07-30T09:58:05;2.50;;;2.30;;
20705;SDS011;10514;49.468;11.044;2022-07-30T10:00:35;2.53;;;2.33;;
20705;SDS011;10514;49.468;11.044;2022-07-30T10:03:13;5.65;;;2.80;;
20705;SDS011;10514;49.468;11.044;2022-07-30T10:05:52;4.28;;;2.00;;
20705;SDS011;10514;49.468;11.044;2022-07-30T10:08:19;4.90;;;2.53;;
20705;SDS011;10514;49.468;11.044;2022-07-30T10:11:01;4.90;;;2.40;;
20705;SDS011;10514;49.468;11.044;2022-07-30T10:13:27;3.38;;;2.17;;
20705;SDS011;10514;49.468;11.044;2022-07-30T10:15:53;3.50;;;2.65;;
20705;SDS011;10514;49.468;11.044;2022-07-30T10:18:19;2.85;;;2.38;;
20705;SDS011;10514;49.468;11.044;2022-07-30T10:20:45;3.20;;;2.25;;
20705;SDS011;10514;49.468;11.044;2022-07-30T10:23:11;2.75;;;2.40;;
20705;SDS011;10514;49.468;11.044;2022-07-30T10:25:37;2.97;;;2.08;;
20705;SDS011;10514;49.468;11.044;2022-07-30T10:28:03;2.95;;;2.65;;
20705;SDS011;10514;49.468;11.044;2022-07-30T10:30:29;2.60;;;2.40;;
20705;SDS011;10514;49.468;11.044;2022-07-30T10:32:56;3.58;;;2.53;;
20705;SDS011;10514;49.468;11.044;2022-07-30T10:35:22;2.10;;;1.90;;
20705;SDS011;10514;49.468;11.044;2022-07-30T10:37:48;4.68;;;2.13;;
20705;SDS011;10514;49.468;11.044;2022-07-30T10:40:21;2.80;;;2.10;;
20705;SDS011;10514;49.468;11.044;2022-07-30T10:48:23;3.67;;;2.35;;
20705;SDS011;10514;49.468;11.044;2022-07-30T10:50:53;2.88;;;2.00;;
20705;SDS011;10514;49.468;11.044;2022-07-30T10:56:10;3.15;;;2.38;;
20705;SDS011;10514;49.468;11.044;2022-07-30T10:59:04;2.63;;;2.20;;
20705;SDS011;10514;49.468;11.044;2022-07-30T11:04:25;2.47;;;2.22;;
20705;SDS011;10514;49.468;11.044;2022-07-30T11:06:51;3.08;;;2.20;;
20705;SDS011;10514;49.468;11.044;2022-07-30T11:09:37;4.35;;;2.17;;
20705;SDS011;10514;49.468;11.044;2022-07-30T11:12:07;2.15;;;1.88;;
20705;SDS011;10514;49.468;11.044;2022-07-30T11:17:11;2.95;;;2.25;;
20705;SDS011;10514;49.468;11.044;2022-07-30T11:20:08;2.95;;;1.98;;
20705;SDS011;10514;49.468;11.044;2022-07-30T11:22:31;4.60;;;2.15;;
20705;SDS011;10514;49.468;11.044;2022-07-30T11:25:08;4.60;;;2.55;;
20705;SDS011;10514;49.468;11.044;2022-07-30T11:32:41;4.13;;;2.35;;
20705;SDS011;10514;49.468;11.044;2022-07-30T11:38:00;5.32;;;2.08;;
20705;SDS011;10514;49.468;11.044;2022-07-30T11:40:34;4.35;;;1.95;;
20705;SDS011;10514;49.468;11.044;2022-07-30T11:46:03;2.53;;;2.08;;
20705;SDS011;10514;49.468;11.044;2022-07-30T11:48:30;7.63;;;2.60;;
20705;SDS011;10514;49.468;11.044;2022-07-30T11:50:56;4.60;;;2.55;;
20705;SDS011;10514;49.468;11.044;2022-07-30T11:53:22;2.25;;;1.77;;
20705;SDS011;10514;49.468;11.044;2022-07-30T11:55:51;3.17;;;2.10;;
20705;SDS011;10514;49.468;11.044;2022-07-30T11:58:33;2.75;;;1.88;;
20705;SDS011;10514;49.468;11.044;2022-07-30T12:01:05;9.63;;;2.50;;
20705;SDS011;10514;49.468;11.044;2022-07-30T12:03:38;3.03;;;2.22;;
20705;SDS011;10514;49.468;11.044;2022-07-30T12:06:06;3.33;;;2.60;;
20705;SDS011;10514;49.468;11.044;2022-07-30T12:08:38;2.35;;;1.90;;
20705;SDS011;10514;49.468;11.044;2022-07-30T12:11:04;3.38;;;2.33;;
20705;SDS011;10514;49.468;11.044;2022-07-30T12:13:30;4.38;;;2.40;;
20705;SDS011;10514;49.468;11.044;2022-07-30T12:15:56;2.67;;;2.20;;
20705;SDS011;10514;49.468;11.044;2022-07-30T12:18:23;2.47;;;2.10;;
20705;SDS011;10514;49.468;11.044;2022-07-30T12:20:56;3.13;;;1.80;;
20705;SDS011;10514;49.468;11.044;2022-07-30T12:23:23;3.95;;;2.38;;
20705;SDS011;10514;49.468;11.044;2022-07-30T12:25:49;2.47;;;2.28;;
20705;SDS011;10514;49.468;11.044;2022-07-30T12:28:22;6.28;;;2.50;;
20705;SDS011;10514;49.468;11.044;2022-07-30T12:30:48;26.00;;;5.15;;
20705;SDS011;10514;49.468;11.044;2022-07-30T12:33:15;16.23;;;5.13;;
20705;SDS011;10514;49.468;11.044;2022-07-30T12:35:42;7.80;;;3.35;;
20705;SDS011;10514;49.468;11.044;2022-07-30T12:38:07;8.35;;;3.97;;
20705;SDS011;10514;49.468;11.044;2022-07-30T12:40:33;5.78;;;3.17;;
20705;SDS011;10514;49.468;11.044;2022-07-30T12:43:14;5.05;;;3.47;;
20705;SDS011;10514;49.468;11.044;2022-07-30T12:45:40;3.80;;;3.30;;
20705;SDS011;10514;49.468;11.044;2022-07-30T12:48:09;9.95;;;4.20;;
20705;SDS011;10514;49.468;11.044;2022-07-30T12:50:35;4.15;;;3.42;;
20705;SDS011;10514;49.468;11.044;2022-07-30T12:53:01;6.13;;;3.88;;
20705;SDS011;10514;49.468;11.044;2022-07-30T12:55:29;7.78;;;4.75;;
20705;SDS011;10514;49.468;11.044;2022-07-30T12:58:05;5.88;;;3.60;;
20705;SDS011;10514;49.468;11.044;2022-07-30T13:00:32;4.50;;;3.50;;
20705;SDS011;10514;49.468;11.044;2022-07-30T13:03:00;6.50;;;3.70;;
20705;SDS011;10514;49.468;11.044;2022-07-30T13:08:11;3.63;;;2.60;;
20705;SDS011;10514;49.468;11.044;2022-07-30T13:10:36;7.40;;;2.58;;
20705;SDS011;10514;49.468;11.044;2022-07-30T13:13:02;3.92;;;2.25;;
20705;SDS011;10514;49.468;11.044;2022-07-30T13:15:28;6.53;;;2.50;;
20705;SDS011;10514;49.468;11.044;2022-07-30T13:17:54;6.80;;;2.58;;
20705;SDS011;10514;49.468;11.044;2022-07-30T13:20:20;7.10;;;2.80;;
20705;SDS011;10514;49.468;11.044;2022-07-30T13:22:46;5.00;;;2.38;;
20705;SDS011;10514;49.468;11.044;2022-07-30T13:25:12;6.95;;;2.95;;
20705;SDS011;10514;49.468;11.044;2022-07-30T13:27:38;5.53;;;2.42;;
20705;SDS011;10514;49.468;11.044;2022-07-30T13:30:04;3.45;;;2.42;;
20705;SDS011;10514;49.468;11.044;2022-07-30T13:32:30;3.33;;;2.10;;
20705;SDS011;10514;49.468;11.044;2022-07-30T13:34:56;3.42;;;2.10;;
20705;SDS011;10514;49.468;11.044;2022-07-30T13:37:22;3.38;;;2.25;;
20705;SDS011;10514;49.468;11.044;2022-07-30T13:39:48;4.97;;;1.98;;
20705;SDS011;10514;49.468;11.044;2022-07-30T13:42:14;4.97;;;2.10;;
20705;SDS011;10514;49.468;11.044;2022-07-30T13:44:39;3.50;;;2.08;;
20705;SDS011;10514;49.468;11.044;2022-07-30T13:47:05;5.50;;;1.80;;
20705;SDS011;10514;49.468;11.044;2022-07-30T13:49:32;3.20;;;1.90;;
20705;SDS011;10514;49.468;11.044;2022-07-30T13:52:00;3.40;;;1.70;;
20705;SDS011;10514;49.468;11.044;2022-07-30T13:54:26;3.67;;;1.98;;
20705;SDS011;10514;49.468;11.044;2022-07-30T13:56:54;3.63;;;1.92;;
20705;SDS011;10514;49.468;11.044;2022-07-30T13:59:20;3.03;;;2.00;;
20705;SDS011;10514;49.468;11.044;2022-07-30T14:01:46;2.63;;;1.73;;
20705;SDS011;10514;49.468;11.044;2022-07-30T14:04:11;2.42;;;1.42;;
20705;SDS011;10514;49.468;11.044;2022-07-30T14:06:37;4.63;;;2.20;;
20705;SDS011;10514;49.468;11.044;2022-07-30T14:09:03;3.53;;;2.00;;
20705;SDS011;10514;49.468;11.044;2022-07-30T14:11:29;2.28;;;1.80;;
20705;SDS011;10514;49.468;11.044;2022-07-30T14:13:55;3.20;;;1.50;;
20705;SDS011;10514;49.468;11.044;2022-07-30T14:16:21;3.20;;;1.75;;
20705;SDS011;10514;49.468;11.044;2022-07-30T14:18:47;4.60;;;2.10;;
20705;SDS011;10514;49.468;11.044;2022-07-30T14:21:13;2.67;;;1.50;;
20705;SDS011;10514;49.468;11.044;2022-07-30T14:23:38;2.38;;;1.60;;
20705;SDS011;10514;49.468;11.044;2022-07-30T14:26:04;3.08;;;2.20;;
20705;SDS011;10514;49.468;11.044;2022-07-30T14:28:30;4.22;;;2.13;;
20705;SDS011;10514;49.468;11.044;2022-07-30T14:30:55;2.30;;;1.60;;
20705;SDS011;10514;49.468;11.044;2022-07-30T14:33:21;4.75;;;2.10;;
20705;SDS011;10514;49.468;11.044;2022-07-30T14:35:47;4.15;;;2.38;;
20705;SDS011;10514;49.468;11.044;2022-07-30T14:38:13;5.43;;;2.40;;
20705;SDS011;10514;49.468;11.044;2022-07-30T14:40:39;7.75;;;2.17;;
20705;SDS011;10514;49.468;11.044;2022-07-30T14:43:05;7.70;;;2.33;;
20705;SDS011;10514;49.468;11.044;2022-07-30T14:45:30;2.47;;;2.00;;
20705;SDS011;10514;49.468;11.044;2022-07-30T14:47:57;4.65;;;1.92;;
20705;SDS011;10514;49.468;11.044;2022-07-30T14:50:23;5.68;;;2.10;;
20705;SDS011;10514;49.468;11.044;2022-07-30T14:52:49;4.45;;;2.38;;
20705;SDS011;10514;49.468;11.044;2022-07-30T14:55:15;3.13;;;2.38;;
20705;SDS011;10514;49.468;11.044;2022-07-30T14:57:41;5.13;;;2.80;;
20705;SDS011;10514;49.468;11.044;2022-07-30T15:00:08;4.22;;;2.50;;